sensor_id;sensor_type;location;lat;lon;timestamp;temperature;humidity
1447;DHT22;717;51.522;7.266;2022-11-20T00:00:11;7.60;88.50
1447;DHT22;717;51.522;7.266;2022-11-20T00:02:40;7.60;88.70
1447;DHT22;717;51.522;7.266;2022-11-20T00:05:09;7.60;88.60
1447;DHT22;717;51.522;7.266;2022-11-20T00:07:37;7.60;88.70
1447;DHT22;717;51.522;7.266;2022-11-20T00:10:07;7.60;88.50
1447;DHT22;717;51.522;7.266;2022-11-20T00:12:39;7.50;88.50
1447;DHT22;717;51.522;7.266;2022-11-20T00:15:09;7.60;88.80
1447;DHT22;717;51.522;7.266;2022-11-20T00:17:38;7.50;88.70
1447;DHT22;717;51.522;7.266;2022-11-20T00:20:08;7.60;88.70
1447;DHT22;717;51.522;7.266;2022-11-20T00:22:37;7.60;88.70
1447;DHT22;717;51.522;7.266;2022-11-20T00:25:06;7.60;88.70
1447;DHT22;717;51.522;7.266;2022-11-20T00:27:37;7.60;88.70
1447;DHT22;717;51.522;7.266;2022-11-20T00:30:07;7.60;88.60
1447;DHT22;717;51.522;7.266;2022-11-20T00:32:37;7.60;88.80
1447;DHT22;717;51.522;7.266;2022-11-20T00:35:06;7.60;89.00
1447;DHT22;717;51.522;7.266;2022-11-20T00:37:35;7.60;89.40
1447;DHT22;717;51.522;7.266;2022-11-20T00:40:04;7.60;89.40
1447;DHT22;717;51.522;7.266;2022-11-20T00:42:33;7.60;89.40
1447;DHT22;717;51.522;7.266;2022-11-20T00:45:05;7.60;89.60
1447;DHT22;717;51.522;7.266;2022-11-20T00:47:34;7.60;89.70
1447;DHT22;717;51.522;7.266;2022-11-20T00:50:03;7.60;89.60
1447;DHT22;717;51.522;7.266;2022-11-20T00:52:32;7.70;89.80
1447;DHT22;717;51.522;7.266;2022-11-20T00:55:01;7.60;89.80
1447;DHT22;717;51.522;7.266;2022-11-20T00:57:29;7.60;89.90
1447;DHT22;717;51.522;7.266;2022-11-20T00:59:58;7.70;90.00
1447;DHT22;717;51.522;7.266;2022-11-20T01:02:29;7.70;90.00
1447;DHT22;717;51.522;7.266;2022-11-20T01:04:58;7.70;90.10
1447;DHT22;717;51.522;7.266;2022-11-20T01:07:27;7.70;90.00
1447;DHT22;717;51.522;7.266;2022-11-20T01:09:56;7.70;90.00
1447;DHT22;717;51.522;7.266;2022-11-20T01:12:24;7.70;90.00
1447;DHT22;717;51.522;7.266;2022-11-20T01:14:53;7.60;90.00
1447;DHT22;717;51.522;7.266;2022-11-20T01:17:23;7.70;90.00
1447;DHT22;717;51.522;7.266;2022-11-20T01:19:55;7.60;90.00
1447;DHT22;717;51.522;7.266;2022-11-20T01:22:24;7.60;90.10
1447;DHT22;717;51.522;7.266;2022-11-20T01:24:52;7.70;90.40
1447;DHT22;717;51.522;7.266;2022-11-20T01:27:21;7.60;90.00
1447;DHT22;717;51.522;7.266;2022-11-20T01:29:51;7.60;90.00
1447;DHT22;717;51.522;7.266;2022-11-20T01:32:19;7.60;90.00
1447;DHT22;717;51.522;7.266;2022-11-20T01:34:48;7.70;90.00
1447;DHT22;717;51.522;7.266;2022-11-20T01:37:19;7.60;90.10
1447;DHT22;717;51.522;7.266;2022-11-20T01:39:48;7.60;90.10
1447;DHT22;717;51.522;7.266;2022-11-20T01:42:17;7.60;90.10
1447;DHT22;717;51.522;7.266;2022-11-20T01:44:59;7.60;90.20
1447;DHT22;717;51.522;7.266;2022-11-20T01:47:32;7.60;90.10
1447;DHT22;717;51.522;7.266;2022-11-20T01:50:05;7.60;90.20
1447;DHT22;717;51.522;7.266;2022-11-20T01:52:44;7.60;90.20
1447;DHT22;717;51.522;7.266;2022-11-20T01:55:19;7.60;90.30
1447;DHT22;717;51.522;7.266;2022-11-20T01:57:48;7.60;90.30
1447;DHT22;717;51.522;7.266;2022-11-20T02:00:19;7.60;90.20
1447;DHT22;717;51.522;7.266;2022-11-20T02:02:51;7.60;90.30
1447;DHT22;717;51.522;7.266;2022-11-20T02:05:24;7.60;90.30
1447;DHT22;717;51.522;7.266;2022-11-20T02:07:57;7.60;90.30
1447;DHT22;717;51.522;7.266;2022-11-20T02:10:28;7.60;90.40
1447;DHT22;717;51.522;7.266;2022-11-20T02:12:58;7.60;90.40
1447;DHT22;717;51.522;7.266;2022-11-20T02:15:51;7.60;90.40
1447;DHT22;717;51.522;7.266;2022-11-20T02:18:21;7.60;90.40
1447;DHT22;717;51.522;7.266;2022-11-20T02:20:57;7.60;90.30
1447;DHT22;717;51.522;7.266;2022-11-20T02:23:32;7.60;90.50
1447;DHT22;717;51.522;7.266;2022-11-20T02:26:07;7.60;90.50
1447;DHT22;717;51.522;7.266;2022-11-20T02:28:37;7.60;90.50
1447;DHT22;717;51.522;7.266;2022-11-20T02:31:07;7.60;90.50
1447;DHT22;717;51.522;7.266;2022-11-20T02:33:35;7.60;90.50
1447;DHT22;717;51.522;7.266;2022-11-20T02:36:05;7.60;90.50
1447;DHT22;717;51.522;7.266;2022-11-20T02:38:34;7.70;90.60
1447;DHT22;717;51.522;7.266;2022-11-20T02:41:06;7.70;90.70
1447;DHT22;717;51.522;7.266;2022-11-20T02:43:34;7.60;90.70
1447;DHT22;717;51.522;7.266;2022-11-20T02:46:06;7.70;90.70
1447;DHT22;717;51.522;7.266;2022-11-20T02:48:36;7.70;90.70
1447;DHT22;717;51.522;7.266;2022-11-20T02:51:04;7.70;90.70
1447;DHT22;717;51.522;7.266;2022-11-20T02:53:33;7.70;90.70
1447;DHT22;717;51.522;7.266;2022-11-20T02:56:05;7.70;90.70
1447;DHT22;717;51.522;7.266;2022-11-20T02:58:34;7.70;90.70
1447;DHT22;717;51.522;7.266;2022-11-20T03:01:03;7.70;90.70
1447;DHT22;717;51.522;7.266;2022-11-20T03:03:31;7.70;90.70
1447;DHT22;717;51.522;7.266;2022-11-20T03:06:00;7.70;90.70
1447;DHT22;717;51.522;7.266;2022-11-20T03:08:29;7.70;90.70
1447;DHT22;717;51.522;7.266;2022-11-20T03:11:06;7.70;90.70
1447;DHT22;717;51.522;7.266;2022-11-20T03:13:35;7.70;90.70
1447;DHT22;717;51.522;7.266;2022-11-20T03:16:10;7.70;90.70
1447;DHT22;717;51.522;7.266;2022-11-20T03:18:39;7.70;90.80
1447;DHT22;717;51.522;7.266;2022-11-20T03:21:09;7.70;90.70
1447;DHT22;717;51.522;7.266;2022-11-20T03:23:38;7.70;90.60
1447;DHT22;717;51.522;7.266;2022-11-20T03:26:15;7.70;90.70
1447;DHT22;717;51.522;7.266;2022-11-20T03:28:48;7.70;90.90
1447;DHT22;717;51.522;7.266;2022-11-20T03:31:18;7.60;90.80
1447;DHT22;717;51.522;7.266;2022-11-20T03:33:48;7.60;90.70
1447;DHT22;717;51.522;7.266;2022-11-20T03:36:19;7.70;90.70
1447;DHT22;717;51.522;7.266;2022-11-20T03:38:48;7.60;90.70
1447;DHT22;717;51.522;7.266;2022-11-20T03:41:22;7.60;90.70
1447;DHT22;717;51.522;7.266;2022-11-20T03:43:52;7.60;90.80
1447;DHT22;717;51.522;7.266;2022-11-20T03:46:22;7.60;90.80
1447;DHT22;717;51.522;7.266;2022-11-20T03:48:52;7.60;90.70
1447;DHT22;717;51.522;7.266;2022-11-20T03:51:22;7.60;90.70
1447;DHT22;717;51.522;7.266;2022-11-20T03:53:53;7.60;90.70
1447;DHT22;717;51.522;7.266;2022-11-20T03:56:27;7.60;90.60
1447;DHT22;717;51.522;7.266;2022-11-20T03:58:56;7.60;90.70
1447;DHT22;717;51.522;7.266;2022-11-20T04:01:27;7.60;90.60
1447;DHT22;717;51.522;7.266;2022-11-20T04:03:57;7.60;90.60
1447;DHT22;717;51.522;7.266;2022-11-20T04:06:27;7.60;90.60
1447;DHT22;717;51.522;7.266;2022-11-20T04:08:57;7.60;90.70
1447;DHT22;717;51.522;7.266;2022-11-20T04:11:31;7.60;90.60
1447;DHT22;717;51.522;7.266;2022-11-20T04:14:03;7.60;90.80
1447;DHT22;717;51.522;7.266;2022-11-20T04:16:33;7.60;90.80
1447;DHT22;717;51.522;7.266;2022-11-20T04:19:04;7.60;90.80
1447;DHT22;717;51.522;7.266;2022-11-20T04:21:33;7.60;90.80
1447;DHT22;717;51.522;7.266;2022-11-20T04:24:02;7.60;90.80
1447;DHT22;717;51.522;7.266;2022-11-20T04:26:34;7.60;90.90
1447;DHT22;717;51.522;7.266;2022-11-20T04:29:03;7.60;91.00
1447;DHT22;717;51.522;7.266;2022-11-20T04:31:33;7.60;91.00
1447;DHT22;717;51.522;7.266;2022-11-20T04:34:05;7.60;91.10
1447;DHT22;717;51.522;7.266;2022-11-20T04:36:34;7.60;91.10
1447;DHT22;717;51.522;7.266;2022-11-20T04:39:05;7.70;91.10
1447;DHT22;717;51.522;7.266;2022-11-20T04:41:38;7.70;91.10
1447;DHT22;717;51.522;7.266;2022-11-20T04:44:07;7.70;91.20
1447;DHT22;717;51.522;7.266;2022-11-20T04:46:37;7.70;91.10
1447;DHT22;717;51.522;7.266;2022-11-20T04:49:07;7.70;91.10
1447;DHT22;717;51.522;7.266;2022-11-20T04:51:36;7.80;91.20
1447;DHT22;717;51.522;7.266;2022-11-20T04:54:05;7.80;91.20
1447;DHT22;717;51.522;7.266;2022-11-20T04:56:36;7.80;91.30
1447;DHT22;717;51.522;7.266;2022-11-20T04:59:05;7.80;91.30
1447;DHT22;717;51.522;7.266;2022-11-20T05:01:34;7.80;91.30
1447;DHT22;717;51.522;7.266;2022-11-20T05:04:03;7.80;91.40
1447;DHT22;717;51.522;7.266;2022-11-20T05:06:32;7.80;91.40
1447;DHT22;717;51.522;7.266;2022-11-20T05:09:01;7.80;91.40
1447;DHT22;717;51.522;7.266;2022-11-20T05:11:29;7.90;91.50
1447;DHT22;717;51.522;7.266;2022-11-20T05:14:02;7.90;91.50
1447;DHT22;717;51.522;7.266;2022-11-20T05:16:31;7.90;91.60
1447;DHT22;717;51.522;7.266;2022-11-20T05:19:02;7.90;91.60
1447;DHT22;717;51.522;7.266;2022-11-20T05:21:31;7.90;91.60
1447;DHT22;717;51.522;7.266;2022-11-20T05:24:01;8.00;91.70
1447;DHT22;717;51.522;7.266;2022-11-20T05:26:30;7.90;91.60
1447;DHT22;717;51.522;7.266;2022-11-20T05:28:58;8.00;91.70
1447;DHT22;717;51.522;7.266;2022-11-20T05:31:30;8.00;91.70
1447;DHT22;717;51.522;7.266;2022-11-20T05:33:59;8.00;91.70
1447;DHT22;717;51.522;7.266;2022-11-20T05:36:27;8.00;91.70
1447;DHT22;717;51.522;7.266;2022-11-20T05:38:56;8.00;91.80
1447;DHT22;717;51.522;7.266;2022-11-20T05:41:25;8.00;91.70
1447;DHT22;717;51.522;7.266;2022-11-20T05:43:55;8.00;91.70
1447;DHT22;717;51.522;7.266;2022-11-20T05:46:24;8.00;91.80
1447;DHT22;717;51.522;7.266;2022-11-20T05:48:57;8.00;91.70
1447;DHT22;717;51.522;7.266;2022-11-20T05:51:26;8.00;91.80
1447;DHT22;717;51.522;7.266;2022-11-20T05:53:56;8.00;91.80
1447;DHT22;717;51.522;7.266;2022-11-20T05:56:26;8.00;91.80
1447;DHT22;717;51.522;7.266;2022-11-20T05:58:54;8.00;91.80
1447;DHT22;717;51.522;7.266;2022-11-20T06:01:25;8.00;91.70
1447;DHT22;717;51.522;7.266;2022-11-20T06:03:56;8.00;91.70
1447;DHT22;717;51.522;7.266;2022-11-20T06:06:25;8.00;91.50
1447;DHT22;717;51.522;7.266;2022-11-20T06:08:55;8.00;91.80
1447;DHT22;717;51.522;7.266;2022-11-20T06:11:25;7.90;91.80
1447;DHT22;717;51.522;7.266;2022-11-20T06:13:54;8.00;91.90
1447;DHT22;717;51.522;7.266;2022-11-20T06:16:22;7.90;91.90
1447;DHT22;717;51.522;7.266;2022-11-20T06:18:51;7.90;91.90
1447;DHT22;717;51.522;7.266;2022-11-20T06:21:23;8.00;91.80
1447;DHT22;717;51.522;7.266;2022-11-20T06:23:52;8.00;91.80
1447;DHT22;717;51.522;7.266;2022-11-20T06:26:23;8.00;91.80
1447;DHT22;717;51.522;7.266;2022-11-20T06:28:53;8.00;91.80
1447;DHT22;717;51.522;7.266;2022-11-20T06:31:24;8.00;91.90
1447;DHT22;717;51.522;7.266;2022-11-20T06:33:53;8.00;91.80
1447;DHT22;717;51.522;7.266;2022-11-20T06:36:24;8.00;91.80
1447;DHT22;717;51.522;7.266;2022-11-20T06:38:53;8.00;91.80
1447;DHT22;717;51.522;7.266;2022-11-20T06:41:22;8.00;91.80
1447;DHT22;717;51.522;7.266;2022-11-20T06:43:51;7.90;91.80
1447;DHT22;717;51.522;7.266;2022-11-20T06:46:20;8.00;91.80
1447;DHT22;717;51.522;7.266;2022-11-20T06:48:50;8.00;91.80
1447;DHT22;717;51.522;7.266;2022-11-20T06:51:19;7.90;91.70
1447;DHT22;717;51.522;7.266;2022-11-20T06:53:50;8.00;91.80
1447;DHT22;717;51.522;7.266;2022-11-20T06:56:19;8.00;91.80
1447;DHT22;717;51.522;7.266;2022-11-20T06:58:48;8.00;91.80
1447;DHT22;717;51.522;7.266;2022-11-20T07:01:17;7.90;91.70
1447;DHT22;717;51.522;7.266;2022-11-20T07:03:48;7.90;91.70
1447;DHT22;717;51.522;7.266;2022-11-20T07:06:17;7.90;91.80
1447;DHT22;717;51.522;7.266;2022-11-20T07:08:46;7.90;91.60
1447;DHT22;717;51.522;7.266;2022-11-20T07:11:17;7.90;91.70
1447;DHT22;717;51.522;7.266;2022-11-20T07:13:47;7.90;91.70
1447;DHT22;717;51.522;7.266;2022-11-20T07:16:16;7.90;91.60
1447;DHT22;717;51.522;7.266;2022-11-20T07:18:45;7.90;91.70
1447;DHT22;717;51.522;7.266;2022-11-20T07:21:14;7.90;91.60
1447;DHT22;717;51.522;7.266;2022-11-20T07:23:42;7.90;91.60
1447;DHT22;717;51.522;7.266;2022-11-20T07:26:11;7.90;91.60
1447;DHT22;717;51.522;7.266;2022-11-20T07:28:44;7.90;91.70
1447;DHT22;717;51.522;7.266;2022-11-20T07:31:12;7.90;91.60
1447;DHT22;717;51.522;7.266;2022-11-20T07:33:41;7.90;91.60
1447;DHT22;717;51.522;7.266;2022-11-20T07:36:09;7.90;91.60
1447;DHT22;717;51.522;7.266;2022-11-20T07:38:38;7.90;91.60
1447;DHT22;717;51.522;7.266;2022-11-20T07:41:07;7.90;91.60
1447;DHT22;717;51.522;7.266;2022-11-20T07:43:35;7.80;91.50
1447;DHT22;717;51.522;7.266;2022-11-20T07:46:07;7.90;91.50
1447;DHT22;717;51.522;7.266;2022-11-20T07:48:35;7.80;91.50
1447;DHT22;717;51.522;7.266;2022-11-20T07:51:04;7.80;91.50
1447;DHT22;717;51.522;7.266;2022-11-20T07:53:33;7.80;91.40
1447;DHT22;717;51.522;7.266;2022-11-20T07:56:02;7.90;91.50
1447;DHT22;717;51.522;7.266;2022-11-20T07:58:31;7.90;91.50
1447;DHT22;717;51.522;7.266;2022-11-20T08:01:03;7.80;91.50
1447;DHT22;717;51.522;7.266;2022-11-20T08:03:35;7.80;91.60
1447;DHT22;717;51.522;7.266;2022-11-20T08:06:05;7.90;91.70
1447;DHT22;717;51.522;7.266;2022-11-20T08:08:34;7.90;91.70
1447;DHT22;717;51.522;7.266;2022-11-20T08:11:05;7.90;91.70
1447;DHT22;717;51.522;7.266;2022-11-20T08:13:46;7.90;91.70
1447;DHT22;717;51.522;7.266;2022-11-20T08:16:27;7.90;91.70
1447;DHT22;717;51.522;7.266;2022-11-20T08:18:58;7.90;91.80
1447;DHT22;717;51.522;7.266;2022-11-20T08:21:27;7.90;91.80
1447;DHT22;717;51.522;7.266;2022-11-20T08:23:56;7.90;91.80
1447;DHT22;717;51.522;7.266;2022-11-20T08:26:25;7.90;92.20
1447;DHT22;717;51.522;7.266;2022-11-20T08:28:54;7.90;91.90
1447;DHT22;717;51.522;7.266;2022-11-20T08:31:25;7.90;91.90
1447;DHT22;717;51.522;7.266;2022-11-20T08:33:54;8.00;92.00
1447;DHT22;717;51.522;7.266;2022-11-20T08:36:25;7.90;92.00
1447;DHT22;717;51.522;7.266;2022-11-20T08:38:55;8.00;92.00
1447;DHT22;717;51.522;7.266;2022-11-20T08:41:24;8.00;92.00
1447;DHT22;717;51.522;7.266;2022-11-20T08:43:54;8.00;92.10
1447;DHT22;717;51.522;7.266;2022-11-20T08:46:24;8.00;92.10
1447;DHT22;717;51.522;7.266;2022-11-20T08:48:53;8.00;92.10
1447;DHT22;717;51.522;7.266;2022-11-20T08:51:24;8.10;92.20
1447;DHT22;717;51.522;7.266;2022-11-20T08:53:53;8.10;92.30
1447;DHT22;717;51.522;7.266;2022-11-20T08:56:23;8.10;92.20
1447;DHT22;717;51.522;7.266;2022-11-20T08:58:53;8.10;92.30
1447;DHT22;717;51.522;7.266;2022-11-20T09:01:22;8.10;92.30
1447;DHT22;717;51.522;7.266;2022-11-20T09:03:51;8.10;92.30
1447;DHT22;717;51.522;7.266;2022-11-20T09:06:20;8.20;92.40
1447;DHT22;717;51.522;7.266;2022-11-20T09:08:54;8.20;92.40
1447;DHT22;717;51.522;7.266;2022-11-20T09:11:23;8.20;92.50
1447;DHT22;717;51.522;7.266;2022-11-20T09:13:52;8.30;92.40
1447;DHT22;717;51.522;7.266;2022-11-20T09:16:22;8.30;92.50
1447;DHT22;717;51.522;7.266;2022-11-20T09:18:51;8.30;92.60
1447;DHT22;717;51.522;7.266;2022-11-20T09:21:19;8.30;92.70
1447;DHT22;717;51.522;7.266;2022-11-20T09:23:49;8.30;92.70
1447;DHT22;717;51.522;7.266;2022-11-20T09:26:20;8.40;92.90
1447;DHT22;717;51.522;7.266;2022-11-20T09:28:49;8.40;92.80
1447;DHT22;717;51.522;7.266;2022-11-20T09:31:22;8.40;92.90
1447;DHT22;717;51.522;7.266;2022-11-20T09:33:51;8.50;92.90
1447;DHT22;717;51.522;7.266;2022-11-20T09:36:20;8.50;93.00
1447;DHT22;717;51.522;7.266;2022-11-20T09:38:49;8.50;92.90
1447;DHT22;717;51.522;7.266;2022-11-20T09:41:41;8.60;93.10
1447;DHT22;717;51.522;7.266;2022-11-20T09:44:30;8.60;93.10
1447;DHT22;717;51.522;7.266;2022-11-20T09:47:06;8.60;92.90
1447;DHT22;717;51.522;7.266;2022-11-20T09:49:48;8.70;93.00
1447;DHT22;717;51.522;7.266;2022-11-20T09:52:26;8.70;93.00
1447;DHT22;717;51.522;7.266;2022-11-20T09:54:56;8.70;93.10
1447;DHT22;717;51.522;7.266;2022-11-20T09:57:35;8.70;92.90
1447;DHT22;717;51.522;7.266;2022-11-20T10:00:06;8.80;93.00
1447;DHT22;717;51.522;7.266;2022-11-20T10:02:42;8.80;93.30
1447;DHT22;717;51.522;7.266;2022-11-20T10:05:18;8.80;93.10
1447;DHT22;717;51.522;7.266;2022-11-20T10:07:51;8.80;93.10
1447;DHT22;717;51.522;7.266;2022-11-20T10:10:31;8.90;92.90
1447;DHT22;717;51.522;7.266;2022-11-20T10:13:15;8.90;93.00
1447;DHT22;717;51.522;7.266;2022-11-20T10:15:55;8.90;92.90
1447;DHT22;717;51.522;7.266;2022-11-20T10:18:41;8.90;92.90
1447;DHT22;717;51.522;7.266;2022-11-20T10:21:15;8.80;93.10
1447;DHT22;717;51.522;7.266;2022-11-20T10:24:08;8.80;93.20
1447;DHT22;717;51.522;7.266;2022-11-20T10:26:47;8.80;93.30
1447;DHT22;717;51.522;7.266;2022-11-20T10:29:28;8.90;93.30
1447;DHT22;717;51.522;7.266;2022-11-20T10:32:02;8.90;93.30
1447;DHT22;717;51.522;7.266;2022-11-20T10:34:35;8.90;93.30
1447;DHT22;717;51.522;7.266;2022-11-20T10:37:13;9.00;93.30
1447;DHT22;717;51.522;7.266;2022-11-20T10:39:49;9.00;93.20
1447;DHT22;717;51.522;7.266;2022-11-20T10:42:25;9.10;93.20
1447;DHT22;717;51.522;7.266;2022-11-20T10:45:09;9.10;93.20
1447;DHT22;717;51.522;7.266;2022-11-20T10:47:38;9.20;93.20
1447;DHT22;717;51.522;7.266;2022-11-20T10:50:11;9.10;93.30
1447;DHT22;717;51.522;7.266;2022-11-20T10:52:51;9.20;93.30
1447;DHT22;717;51.522;7.266;2022-11-20T10:55:30;9.30;93.30
1447;DHT22;717;51.522;7.266;2022-11-20T10:58:07;9.30;93.30
1447;DHT22;717;51.522;7.266;2022-11-20T11:00:40;9.30;93.10
1447;DHT22;717;51.522;7.266;2022-11-20T11:03:22;9.30;93.60
1447;DHT22;717;51.522;7.266;2022-11-20T11:05:56;9.30;93.10
1447;DHT22;717;51.522;7.266;2022-11-20T11:08:32;9.30;93.20
1447;DHT22;717;51.522;7.266;2022-11-20T11:11:15;9.40;93.20
1447;DHT22;717;51.522;7.266;2022-11-20T11:13:46;9.40;93.10
1447;DHT22;717;51.522;7.266;2022-11-20T11:16:25;9.50;93.10
1447;DHT22;717;51.522;7.266;2022-11-20T11:19:04;9.50;93.10
1447;DHT22;717;51.522;7.266;2022-11-20T11:21:35;9.50;93.00
1447;DHT22;717;51.522;7.266;2022-11-20T11:24:20;9.50;93.00
1447;DHT22;717;51.522;7.266;2022-11-20T11:26:56;9.50;93.10
1447;DHT22;717;51.522;7.266;2022-11-20T11:29:29;9.60;93.00
1447;DHT22;717;51.522;7.266;2022-11-20T11:32:10;9.60;93.00
1447;DHT22;717;51.522;7.266;2022-11-20T11:34:40;9.60;92.90
1447;DHT22;717;51.522;7.266;2022-11-20T11:37:14;9.60;92.90
1447;DHT22;717;51.522;7.266;2022-11-20T11:39:46;9.60;92.90
1447;DHT22;717;51.522;7.266;2022-11-20T11:42:18;9.70;93.00
1447;DHT22;717;51.522;7.266;2022-11-20T11:44:48;9.70;93.00
1447;DHT22;717;51.522;7.266;2022-11-20T11:47:35;9.70;93.00
1447;DHT22;717;51.522;7.266;2022-11-20T11:50:19;9.80;92.90
1447;DHT22;717;51.522;7.266;2022-11-20T11:52:55;9.80;93.00
1447;DHT22;717;51.522;7.266;2022-11-20T11:55:31;9.80;92.90
1447;DHT22;717;51.522;7.266;2022-11-20T11:58:11;9.90;92.90
1447;DHT22;717;51.522;7.266;2022-11-20T12:00:50;9.90;92.90
1447;DHT22;717;51.522;7.266;2022-11-20T12:03:27;9.90;92.90
1447;DHT22;717;51.522;7.266;2022-11-20T12:05:59;9.90;92.90
1447;DHT22;717;51.522;7.266;2022-11-20T12:08:35;9.90;92.90
1447;DHT22;717;51.522;7.266;2022-11-20T12:11:13;9.90;92.90
1447;DHT22;717;51.522;7.266;2022-11-20T12:13:52;9.90;92.90
1447;DHT22;717;51.522;7.266;2022-11-20T12:16:22;10.00;93.00
1447;DHT22;717;51.522;7.266;2022-11-20T12:18:54;10.00;93.00
1447;DHT22;717;51.522;7.266;2022-11-20T12:21:31;10.10;93.00
1447;DHT22;717;51.522;7.266;2022-11-20T12:24:31;10.10;93.00
1447;DHT22;717;51.522;7.266;2022-11-20T12:27:11;10.10;93.00
1447;DHT22;717;51.522;7.266;2022-11-20T12:29:51;10.10;93.00
1447;DHT22;717;51.522;7.266;2022-11-20T12:32:40;10.10;92.90
1447;DHT22;717;51.522;7.266;2022-11-20T12:35:27;10.20;92.90
1447;DHT22;717;51.522;7.266;2022-11-20T12:38:26;10.20;92.90
1447;DHT22;717;51.522;7.266;2022-11-20T12:41:04;10.20;92.80
1447;DHT22;717;51.522;7.266;2022-11-20T12:43:39;10.20;92.80
1447;DHT22;717;51.522;7.266;2022-11-20T12:46:29;10.20;92.80
1447;DHT22;717;51.522;7.266;2022-11-20T12:49:17;10.30;92.80
1447;DHT22;717;51.522;7.266;2022-11-20T12:52:09;10.30;92.80
1447;DHT22;717;51.522;7.266;2022-11-20T12:54:50;10.30;92.70
1447;DHT22;717;51.522;7.266;2022-11-20T12:57:30;10.30;92.70
1447;DHT22;717;51.522;7.266;2022-11-20T13:00:19;10.30;92.70
1447;DHT22;717;51.522;7.266;2022-11-20T13:03:18;10.30;92.80
1447;DHT22;717;51.522;7.266;2022-11-20T13:05:58;10.30;92.80
1447;DHT22;717;51.522;7.266;2022-11-20T13:08:34;10.30;92.80
1447;DHT22;717;51.522;7.266;2022-11-20T13:11:10;10.30;92.70
1447;DHT22;717;51.522;7.266;2022-11-20T13:13:59;10.30;92.80
1447;DHT22;717;51.522;7.266;2022-11-20T13:16:33;10.40;92.80
1447;DHT22;717;51.522;7.266;2022-11-20T13:19:08;10.40;92.80
1447;DHT22;717;51.522;7.266;2022-11-20T13:21:39;10.40;92.80
1447;DHT22;717;51.522;7.266;2022-11-20T13:24:24;10.40;92.80
1447;DHT22;717;51.522;7.266;2022-11-20T13:27:17;10.50;92.90
1447;DHT22;717;51.522;7.266;2022-11-20T13:29:58;10.40;92.80
1447;DHT22;717;51.522;7.266;2022-11-20T13:32:28;10.50;92.80
1447;DHT22;717;51.522;7.266;2022-11-20T13:35:00;10.50;92.80
1447;DHT22;717;51.522;7.266;2022-11-20T13:37:31;10.50;92.80
1447;DHT22;717;51.522;7.266;2022-11-20T13:40:21;10.50;92.80
1447;DHT22;717;51.522;7.266;2022-11-20T13:43:04;10.50;92.90
1447;DHT22;717;51.522;7.266;2022-11-20T13:45:35;10.60;92.80
1447;DHT22;717;51.522;7.266;2022-11-20T13:48:26;10.60;92.80
1447;DHT22;717;51.522;7.266;2022-11-20T13:51:02;10.60;92.80
1447;DHT22;717;51.522;7.266;2022-11-20T13:53:57;10.60;93.20
1447;DHT22;717;51.522;7.266;2022-11-20T13:56:39;10.60;92.80
1447;DHT22;717;51.522;7.266;2022-11-20T13:59:23;10.60;92.80
1447;DHT22;717;51.522;7.266;2022-11-20T14:01:57;10.60;92.80
1447;DHT22;717;51.522;7.266;2022-11-20T14:04:28;10.60;92.80
1447;DHT22;717;51.522;7.266;2022-11-20T14:06:58;10.60;92.70
1447;DHT22;717;51.522;7.266;2022-11-20T14:09:29;10.60;92.70
1447;DHT22;717;51.522;7.266;2022-11-20T14:12:02;10.60;92.70
1447;DHT22;717;51.522;7.266;2022-11-20T14:14:33;10.60;92.70
1447;DHT22;717;51.522;7.266;2022-11-20T14:17:06;10.60;92.80
1447;DHT22;717;51.522;7.266;2022-11-20T14:19:35;10.60;92.80
1447;DHT22;717;51.522;7.266;2022-11-20T14:22:10;10.60;92.80
1447;DHT22;717;51.522;7.266;2022-11-20T14:24:44;10.60;92.70
1447;DHT22;717;51.522;7.266;2022-11-20T14:27:17;10.60;92.80
1447;DHT22;717;51.522;7.266;2022-11-20T14:29:48;10.70;92.80
1447;DHT22;717;51.522;7.266;2022-11-20T14:32:18;10.70;92.80
1447;DHT22;717;51.522;7.266;2022-11-20T14:34:49;10.70;92.80
1447;DHT22;717;51.522;7.266;2022-11-20T14:37:24;10.70;92.90
1447;DHT22;717;51.522;7.266;2022-11-20T14:39:54;10.70;92.80
1447;DHT22;717;51.522;7.266;2022-11-20T14:42:28;10.70;92.80
1447;DHT22;717;51.522;7.266;2022-11-20T14:44:58;10.70;92.80
1447;DHT22;717;51.522;7.266;2022-11-20T14:47:29;10.70;92.80
1447;DHT22;717;51.522;7.266;2022-11-20T14:49:59;10.70;92.80
1447;DHT22;717;51.522;7.266;2022-11-20T14:52:29;10.70;92.90
1447;DHT22;717;51.522;7.266;2022-11-20T14:54:58;10.70;92.80
1447;DHT22;717;51.522;7.266;2022-11-20T14:57:31;10.70;92.90
1447;DHT22;717;51.522;7.266;2022-11-20T15:00:06;10.70;92.90
1447;DHT22;717;51.522;7.266;2022-11-20T15:02:40;10.70;92.90
1447;DHT22;717;51.522;7.266;2022-11-20T15:05:09;10.70;92.90
1447;DHT22;717;51.522;7.266;2022-11-20T15:07:42;10.70;92.90
1447;DHT22;717;51.522;7.266;2022-11-20T15:10:13;10.70;92.90
1447;DHT22;717;51.522;7.266;2022-11-20T15:12:49;10.70;93.00
1447;DHT22;717;51.522;7.266;2022-11-20T15:15:23;10.70;93.00
1447;DHT22;717;51.522;7.266;2022-11-20T15:17:52;10.70;93.30
1447;DHT22;717;51.522;7.266;2022-11-20T15:20:25;10.70;93.00
1447;DHT22;717;51.522;7.266;2022-11-20T15:22:54;10.60;93.10
1447;DHT22;717;51.522;7.266;2022-11-20T15:25:23;10.70;93.10
1447;DHT22;717;51.522;7.266;2022-11-20T15:27:56;10.70;93.10
1447;DHT22;717;51.522;7.266;2022-11-20T15:30:25;10.60;93.10
1447;DHT22;717;51.522;7.266;2022-11-20T15:32:54;10.60;93.10
1447;DHT22;717;51.522;7.266;2022-11-20T15:35:22;10.60;93.10
1447;DHT22;717;51.522;7.266;2022-11-20T15:37:51;10.60;93.20
1447;DHT22;717;51.522;7.266;2022-11-20T15:40:19;10.60;93.20
1447;DHT22;717;51.522;7.266;2022-11-20T15:42:48;10.60;93.20
1447;DHT22;717;51.522;7.266;2022-11-20T15:45:38;10.60;93.20
1447;DHT22;717;51.522;7.266;2022-11-20T15:48:10;10.60;93.30
1447;DHT22;717;51.522;7.266;2022-11-20T15:50:46;10.60;93.30
1447;DHT22;717;51.522;7.266;2022-11-20T15:53:18;10.60;93.30
1447;DHT22;717;51.522;7.266;2022-11-20T15:55:47;10.60;93.30
1447;DHT22;717;51.522;7.266;2022-11-20T15:58:16;10.60;93.30
1447;DHT22;717;51.522;7.266;2022-11-20T16:00:47;10.60;93.30
1447;DHT22;717;51.522;7.266;2022-11-20T16:03:16;10.60;93.30
1447;DHT22;717;51.522;7.266;2022-11-20T16:05:46;10.60;93.40
1447;DHT22;717;51.522;7.266;2022-11-20T16:08:15;10.60;93.50
1447;DHT22;717;51.522;7.266;2022-11-20T16:10:43;10.60;93.50
1447;DHT22;717;51.522;7.266;2022-11-20T16:13:14;10.60;93.60
1447;DHT22;717;51.522;7.266;2022-11-20T16:16:03;10.60;93.50
1447;DHT22;717;51.522;7.266;2022-11-20T16:18:35;10.60;93.60
1447;DHT22;717;51.522;7.266;2022-11-20T16:21:03;10.60;93.50
1447;DHT22;717;51.522;7.266;2022-11-20T16:23:32;10.60;93.60
1447;DHT22;717;51.522;7.266;2022-11-20T16:26:09;10.60;93.70
1447;DHT22;717;51.522;7.266;2022-11-20T16:28:38;10.60;93.70
1447;DHT22;717;51.522;7.266;2022-11-20T16:31:15;10.60;93.70
1447;DHT22;717;51.522;7.266;2022-11-20T16:33:49;10.60;93.70
1447;DHT22;717;51.522;7.266;2022-11-20T16:36:19;10.60;93.90
1447;DHT22;717;51.522;7.266;2022-11-20T16:38:52;10.50;93.80
1447;DHT22;717;51.522;7.266;2022-11-20T16:41:21;10.60;93.90
1447;DHT22;717;51.522;7.266;2022-11-20T16:43:53;10.60;93.90
1447;DHT22;717;51.522;7.266;2022-11-20T16:46:26;10.60;93.90
1447;DHT22;717;51.522;7.266;2022-11-20T16:48:57;10.50;93.90
1447;DHT22;717;51.522;7.266;2022-11-20T16:51:26;10.50;94.00
1447;DHT22;717;51.522;7.266;2022-11-20T16:53:56;10.50;94.00
1447;DHT22;717;51.522;7.266;2022-11-20T16:56:26;10.50;94.10
1447;DHT22;717;51.522;7.266;2022-11-20T16:58:57;10.50;94.00
1447;DHT22;717;51.522;7.266;2022-11-20T17:01:28;10.50;94.00
1447;DHT22;717;51.522;7.266;2022-11-20T17:03:58;10.50;94.10